Meteo Giornale » Osservazioni meteo Stati Uniti (USA) » Sparta-Fort McCoy
ore: 08:00 - Osservazioni Meteo Sparta-Fort McCoy
Lat. 43° 57' N Lon. 90° 44' W Alt. 255 metri s.l.m.
23 °C
Nebbia
Temp. 24 Ore
19 °C
32 °C
Nord
0 Km/h
Dew point 22 °C
Umidità 94 %
Visibilità 2 Km
Il sole sorge alle ore 06:26
Il sole tramonta alle ore 19:39
| Data e Ora | Cielo e Fenomeni | T °C | DP °C | Um. % | Pres. hPa | Vis. km | Vento km/h | |
|---|---|---|---|---|---|---|---|---|
| Oggi h: 08:00 | Nebbia | 23 | 22 | 94 | 1014 | 2 | N 0 | |
| Oggi h: 07:55 | Nebbia | 22 | 22 | 100 | 1014 | 2 | N 0 | |
| Oggi h: 07:45 | Nebbia | 22 | 22 | 100 | 1014 | 2 | N 0 | |
| Oggi h: 07:40 | Nebbia | 22 | 22 | 100 | 1014 | 2 | N 0 | |
| Oggi h: 06:55 | Nebbia | 21 | 21 | 100 | 1014 | 2 | N 0 | |
| Oggi h: 06:50 | Nebbia | 21 | 21 | 100 | 1014 | 2 | N 0 | |
| Oggi h: 06:40 | Nebbia | 21 | 21 | 100 | 1013 | 2 | N 0 | |
| Oggi h: 06:30 | Nebbia | 21 | 21 | 100 | 1013 | 5 | N 0 | |
| Oggi h: 06:25 | Nebbia | 21 | 21 | 100 | 1013 | 2 | N 0 | |
| Oggi h: 06:00 | Nebbia | 21 | 21 | 100 | 1013 | 5 | N 0 | |
| Oggi h: 05:55 | Nebbia | 21 | 21 | 100 | 1013 | 2 | N 0 | |
| Oggi h: 05:50 | Nebbia | 21 | 21 | 100 | 1012 | 2 | N 0 | |
| Oggi h: 05:05 | Nebbia | 21 | 21 | 100 | 1012 | 5 | N 0 | |
| Oggi h: 04:55 | Nebbia | 21 | 21 | 100 | 1012 | 2 | N 0 | |
| Oggi h: 04:15 | Nebbia | 21 | 20 | 94 | 1012 | 5 | N 0 | |
| Oggi h: 04:10 | Nebbia | 21 | 20 | 94 | 1012 | 2 | N 0 | |
| Oggi h: 04:05 | Foschia | 20 | 20 | 100 | 1012 | 11 | N 0 | |
| Oggi h: 04:00 | Foschia | 20 | 20 | 100 | 1012 | 5 | N 0 | |
| Oggi h: 03:55 | Nebbia | 20 | 20 | 100 | 1012 | 2 | N 0 | |
| Oggi h: 03:47 | Nebbia | 20 | 20 | 100 | 1012 | 2 | N 0 | |
| Oggi h: 03:27 | Nebbia | 20 | 20 | 100 | 1012 | 5 | N 0 | |
| Oggi h: 03:12 | Foschia | 20 | 19 | 93 | 1012 | 8 | N 0 | |
| Oggi h: 03:07 | Foschia | 19 | 19 | 100 | 1012 | 2 | N 0 | |
| Oggi h: 03:02 | Foschia | 20 | 19 | 93 | 1012 | 2 | N 0 | |
| Oggi h: 03:00 | Foschia | 20 | 19 | 93 | 1012 | 8 | N 0 | |
| Oggi h: 02:55 | Foschia | 20 | 19 | 93 | 1012 | 5 | N 0 | |
| Oggi h: 02:15 | Foschia | 20 | 19 | 93 | 1012 | 10 | N 0 | |
| Oggi h: 02:10 | Foschia | 20 | 19 | 93 | 1012 | 2 | N 0 | |
| Oggi h: 02:05 | Foschia | 19 | 19 | 100 | 1012 | 2 | N 0 | |
| Oggi h: 02:00 | Foschia | 19 | 19 | 100 | 1012 | 2 | N 0 | |
| Oggi h: 01:55 | Foschia | 19 | 19 | 100 | 1012 | 8 | N 0 | |
| Oggi h: 01:00 | Foschia | 20 | 20 | 100 | 1012 | 10 | N 0 | |
| Oggi h: 00:55 | Foschia | 20 | 20 | 100 | 1012 | 5 | N 0 | |
| Oggi h: 00:35 | Foschia | 20 | 20 | 100 | 1012 | 10 | N 0 | |
| Oggi h: 00:30 | Foschia | 21 | 20 | 94 | 1012 | 2 | N 0 | |
| Oggi h: 00:25 | Foschia | 21 | 20 | 94 | 1012 | 2 | N 0 | |
| Ieri h: 23:55 | Foschia | 22 | 21 | 94 | 1012 | 5 | N 0 | |
| Ieri h: 22:55 | Sereno | 22 | 21 | 94 | 1012 | 14 | N 0 | |
| Ieri h: 21:55 | Sereno | 23 | 22 | 94 | 1012 | 10 | N 0 | |
| Ieri h: 20:55 | Sereno | 24 | 23 | 94 | 1011 | 14 | N 0 | |
| Ieri h: 19:55 | Sereno | 26 | 24 | 88 | 1011 | 14 | N 0 | |
| Ieri h: 18:55 | Sereno | 30 | 25 | 74 | 1011 | 10 | N 0 | |
| Ieri h: 17:55 | Sereno | 31 | 24 | 66 | 1010 | 10 | N 5.5 | |
| Ieri h: 16:55 | Sereno | 31 | 25 | 70 | 1010 | 10 | N 5.5 | |
| Ieri h: 15:55 | Poco Nuvoloso | 31 | 24 | 66 | 1009 | 10 | N 0 | |
| Ieri h: 14:55 | Poco Nuvoloso | 32 | 24 | 62 | 1010 | 10 | N 0 | |
| Ieri h: 13:55 | Sereno | 32 | 24 | 62 | 1010 | 10 | N 0 | |
| Ieri h: 12:55 | Sereno | 31 | 24 | 66 | 1010 | 10 | N 0 | |
| Ieri h: 11:55 | Poco Nuvoloso | 29 | 23 | 70 | 1010 | 10 | N 0 | |
| Ieri h: 10:55 | Sereno | 28 | 23 | 74 | 1010 | 10 | N 5.5 | |
| Ieri h: 09:55 | Sereno | 28 | 22 | 69 | 1010 | 10 | N 0 | |
| Ieri h: 08:55 | Sereno | 26 | 22 | 78 | 1009 | 10 | N 0 | |



